createdAt,value
2018-11-02T00:01:54.886Z,95.84
2018-11-02T00:04:21.827Z,96.64
2018-11-02T00:06:48.767Z,96.45
2018-11-02T00:09:15.710Z,96.59
2018-11-02T00:11:42.666Z,96.18
2018-11-02T00:14:09.598Z,95.59
2018-11-02T00:16:36.454Z,96.02
2018-11-02T00:19:03.383Z,96.64
2018-11-02T00:21:30.327Z,96.99
2018-11-02T00:23:57.171Z,96.55
2018-11-02T00:26:24.151Z,96.50
2018-11-02T00:28:51.074Z,96.37
2018-11-02T00:31:18.012Z,95.60
2018-11-02T00:33:44.954Z,95.16
2018-11-02T00:36:11.894Z,94.95
2018-11-02T00:38:38.844Z,94.86
2018-11-02T00:41:05.782Z,94.72
2018-11-02T00:43:32.678Z,93.60
2018-11-02T00:45:59.598Z,93.66
2018-11-02T00:48:26.419Z,93.74
2018-11-02T00:50:53.401Z,94.26
2018-11-02T00:53:20.303Z,94.33
2018-11-02T00:55:47.189Z,93.76
2018-11-02T00:58:14.203Z,94.35
2018-11-02T01:00:41.184Z,93.85
2018-11-02T01:03:08.090Z,94.30
2018-11-02T01:05:35.067Z,94.05
2018-11-02T01:08:02.020Z,93.40
2018-11-02T01:10:29.962Z,93.61
2018-11-02T01:12:56.939Z,93.94
2018-11-02T01:15:23.867Z,94.48
2018-11-02T01:17:52.761Z,94.92
2018-11-02T01:20:19.676Z,94.60
2018-11-02T01:22:46.637Z,94.86
2018-11-02T01:25:13.587Z,94.81
2018-11-02T01:27:40.504Z,93.69
2018-11-02T01:30:07.464Z,93.67
2018-11-02T01:32:34.427Z,93.75
2018-11-02T01:35:01.372Z,93.59
2018-11-02T01:37:28.298Z,92.99
2018-11-02T01:39:56.263Z,92.56
2018-11-02T01:42:23.229Z,92.66
2018-11-02T01:44:50.161Z,92.65
2018-11-02T01:47:18.160Z,92.59
2018-11-02T01:49:45.085Z,92.08
2018-11-02T01:52:12.065Z,90.03
2018-11-02T01:54:38.950Z,88.86
2018-11-02T01:57:09.067Z,89.75
2018-11-02T01:59:36.056Z,90.76
2018-11-02T02:02:03.572Z,90.30
2018-11-02T02:04:30.544Z,90.40
2018-11-02T02:06:57.472Z,91.14
2018-11-02T02:09:24.427Z,91.88
2018-11-02T02:11:51.358Z,93.69
2018-11-02T02:14:18.310Z,92.96
2018-11-02T02:16:45.255Z,93.68
2018-11-02T02:19:12.196Z,92.95
2018-11-02T02:21:39.164Z,93.54
2018-11-02T02:24:06.099Z,93.16
2018-11-02T02:26:34.978Z,92.45
2018-11-02T02:29:01.957Z,92.98
2018-11-02T02:31:28.875Z,93.28
2018-11-02T02:33:55.810Z,94.75
2018-11-02T02:36:22.750Z,93.46
2018-11-02T02:38:49.696Z,93.43
2018-11-02T02:41:16.652Z,93.59
2018-11-02T02:43:43.599Z,93.10
2018-11-02T02:46:10.534Z,93.07
2018-11-02T02:48:37.475Z,92.75
2018-11-02T02:51:04.959Z,92.37
2018-11-02T02:53:31.883Z,91.43
2018-11-02T02:56:00.844Z,91.76
2018-11-02T02:58:27.822Z,91.36
2018-11-02T03:00:54.758Z,90.33
2018-11-02T03:03:21.733Z,91.57
2018-11-02T03:05:48.655Z,91.89
2018-11-02T03:08:15.595Z,90.85
2018-11-02T03:10:42.677Z,91.36
2018-11-02T03:13:09.493Z,92.82
2018-11-02T03:15:38.391Z,92.28
2018-11-02T03:18:07.269Z,90.92
2018-11-02T03:20:34.210Z,91.77
2018-11-02T03:23:01.159Z,92.80
2018-11-02T03:25:28.103Z,94.19
2018-11-02T03:27:55.047Z,94.50
2018-11-02T03:30:22.015Z,94.50
2018-11-02T03:32:50.001Z,93.96
2018-11-02T03:35:16.949Z,94.23
2018-11-02T03:37:44.880Z,93.83
2018-11-02T03:40:11.925Z,93.25
2018-11-02T03:42:38.930Z,93.55
2018-11-02T03:45:06.134Z,93.15
2018-11-02T03:47:33.059Z,92.94
2018-11-02T03:50:00.029Z,92.12
2018-11-02T03:52:26.995Z,91.38
2018-11-02T03:54:54.407Z,89.61
2018-11-02T03:57:21.351Z,90.77
2018-11-02T03:59:48.323Z,91.32
2018-11-02T04:02:15.235Z,90.74
2018-11-02T04:04:42.183Z,91.62
2018-11-02T04:07:11.067Z,92.22
2018-11-02T04:09:38.092Z,91.77
2018-11-02T04:12:05.115Z,91.98
2018-11-02T04:14:32.022Z,92.07
2018-11-02T04:16:59.987Z,90.46
2018-11-02T04:19:26.927Z,90.86
2018-11-02T04:21:53.888Z,91.88
2018-11-02T04:24:20.852Z,92.76
2018-11-02T04:26:47.769Z,92.79
2018-11-02T04:29:15.202Z,92.64
2018-11-02T04:31:42.907Z,92.94
2018-11-02T04:34:09.920Z,93.03
2018-11-02T04:36:36.806Z,92.78
2018-11-02T04:39:06.931Z,92.68
2018-11-02T04:41:34.102Z,90.49
2018-11-02T04:44:11.238Z,90.06
2018-11-02T04:46:38.562Z,90.61
2018-11-02T04:49:06.848Z,91.93
2018-11-02T04:51:33.802Z,92.30
2018-11-02T04:54:04.363Z,92.46
2018-11-02T04:56:36.537Z,92.38
2018-11-02T04:59:04.585Z,93.23
2018-11-02T05:01:32.539Z,93.45
2018-11-02T05:04:00.510Z,93.34
2018-11-02T05:06:29.424Z,93.05
2018-11-02T05:08:58.283Z,92.78
2018-11-02T05:11:28.329Z,93.15
2018-11-02T05:13:57.211Z,93.29
2018-11-02T05:16:26.105Z,93.66
2018-11-02T05:19:02.610Z,92.62
2018-11-02T05:21:31.583Z,93.00
2018-11-02T05:23:59.538Z,92.15
2018-11-02T05:26:26.475Z,91.76
2018-11-02T05:28:53.413Z,92.29
2018-11-02T05:31:21.400Z,91.84
2018-11-02T05:33:52.859Z,91.01
2018-11-02T05:36:19.770Z,90.18
2018-11-02T05:41:44.047Z,89.31
2018-11-02T05:44:11.502Z,91.33
2018-11-02T05:46:38.487Z,91.13
2018-11-02T05:49:15.607Z,91.75
2018-11-02T05:51:42.512Z,92.45
2018-11-02T05:54:09.491Z,93.19
2018-11-02T05:56:38.347Z,92.39
2018-11-02T05:59:05.278Z,91.52
2018-11-02T06:01:32.372Z,92.83
2018-11-02T06:03:59.254Z,92.44
2018-11-02T06:06:26.243Z,91.78
2018-11-02T06:08:53.163Z,92.65
2018-11-02T06:11:20.102Z,92.37
2018-11-02T06:13:50.210Z,92.72
2018-11-02T06:16:21.703Z,92.72
2018-11-02T06:18:48.643Z,90.34
2018-11-02T06:21:15.582Z,92.43
2018-11-02T06:23:52.043Z,92.31
2018-11-02T06:26:20.937Z,92.31
2018-11-02T06:28:54.945Z,92.90
2018-11-02T06:31:21.876Z,92.84
2018-11-02T06:33:55.923Z,94.03
2018-11-02T06:36:23.863Z,93.38
2018-11-02T06:38:51.815Z,91.99
2018-11-02T06:41:20.631Z,92.13
2018-11-02T06:43:52.982Z,90.99
2018-11-02T06:46:34.551Z,92.77
2018-11-02T06:49:01.545Z,93.58
2018-11-02T06:51:38.055Z,93.55
2018-11-02T06:54:09.023Z,93.21
2018-11-02T06:56:39.612Z,93.15
2018-11-02T06:59:15.468Z,92.34
2018-11-02T07:01:45.851Z,92.99
2018-11-02T07:04:12.967Z,92.16
2018-11-02T07:06:40.852Z,92.31
2018-11-02T07:09:09.118Z,91.61
2018-11-02T07:11:36.101Z,92.73
2018-11-02T07:14:03.007Z,92.17
2018-11-02T07:16:31.911Z,91.83
2018-11-02T07:18:58.912Z,91.58
2018-11-02T07:21:25.809Z,90.88
2018-11-02T07:23:52.775Z,91.35
2018-11-02T07:26:19.773Z,91.43
2018-11-02T07:28:46.733Z,91.63
2018-11-02T07:31:13.679Z,91.36
2018-11-02T07:33:41.159Z,90.60
2018-11-02T07:36:08.084Z,90.42
2018-11-02T07:38:35.019Z,90.84
2018-11-02T07:41:02.010Z,91.02
2018-11-02T07:43:28.907Z,91.03
2018-11-02T07:45:55.871Z,90.25
2018-11-02T07:48:22.882Z,91.40
2018-11-02T07:50:49.779Z,91.11
2018-11-02T07:53:16.702Z,92.00
2018-11-02T07:55:43.694Z,91.45
2018-11-02T07:58:10.587Z,89.99
2018-11-02T08:00:37.550Z,89.99
2018-11-02T08:03:04.607Z,90.04
2018-11-02T08:05:31.520Z,90.16
2018-11-02T08:08:03.715Z,87.62
2018-11-02T08:10:30.627Z,88.58
2018-11-02T08:12:57.566Z,89.56
2018-11-02T08:15:24.555Z,89.42
2018-11-02T08:17:51.484Z,89.40
2018-11-02T08:20:18.406Z,88.48
2018-11-02T08:22:45.351Z,88.33
2018-11-02T08:25:12.499Z,87.69
2018-11-02T08:27:39.667Z,86.31
2018-11-02T08:30:07.549Z,86.16
2018-11-02T08:32:34.479Z,86.07
2018-11-02T08:35:01.412Z,85.05
2018-11-02T08:37:28.355Z,84.43
2018-11-02T08:39:55.293Z,84.55
2018-11-02T08:42:23.226Z,83.18
2018-11-02T08:44:50.112Z,81.47
2018-11-02T08:47:17.059Z,81.75
2018-11-02T08:49:44.015Z,81.85
2018-11-02T08:52:12.943Z,80.82
2018-11-02T08:54:39.848Z,80.77
2018-11-02T08:57:06.771Z,79.78
2018-11-02T08:59:34.019Z,78.59
2018-11-02T09:02:00.650Z,78.56
2018-11-02T09:04:27.620Z,77.94
2018-11-02T09:06:54.556Z,78.20
2018-11-02T09:09:21.491Z,77.36
2018-11-02T09:11:48.443Z,77.17
2018-11-02T09:14:15.439Z,75.97
2018-11-02T09:16:42.342Z,77.10
2018-11-02T09:19:09.367Z,74.48
2018-11-02T09:21:36.224Z,74.50
2018-11-02T09:24:03.163Z,73.79
2018-11-02T09:26:30.123Z,72.61
2018-11-02T09:28:57.052Z,73.05
2018-11-02T09:31:24.179Z,72.58
2018-11-02T09:33:51.059Z,72.67
2018-11-02T09:36:18.000Z,73.35
2018-11-02T09:38:44.971Z,70.44
2018-11-02T09:41:11.883Z,70.22
2018-11-02T09:43:42.548Z,69.62
2018-11-02T09:46:09.458Z,69.09
2018-11-02T09:48:36.395Z,70.01
2018-11-02T09:51:05.306Z,68.25
2018-11-02T09:53:32.231Z,69.19
2018-11-02T09:55:59.242Z,68.84
2018-11-02T09:58:26.126Z,68.57
2018-11-02T10:00:54.120Z,66.34
2018-11-02T10:03:21.874Z,67.53
2018-11-02T10:05:48.811Z,66.48
2018-11-02T10:08:15.806Z,65.95
2018-11-02T10:10:42.693Z,66.41
2018-11-02T10:13:09.643Z,65.95
2018-11-02T10:15:36.578Z,65.14
2018-11-02T10:18:03.527Z,66.04
2018-11-02T10:20:30.471Z,65.71
2018-11-02T10:22:57.459Z,65.06
2018-11-02T10:25:24.366Z,64.90
2018-11-02T10:27:52.229Z,65.93
2018-11-02T10:30:20.110Z,67.43
2018-11-02T10:32:49.692Z,66.94
2018-11-02T10:35:16.611Z,68.14
2018-11-02T10:37:43.494Z,68.10
2018-11-02T10:40:13.399Z,66.59
2018-11-02T10:42:41.067Z,66.96
2018-11-02T10:45:08.019Z,66.21
2018-11-02T10:47:34.963Z,65.24
2018-11-02T10:50:01.928Z,65.07
2018-11-02T10:52:28.847Z,66.03
2018-11-02T10:54:55.799Z,66.75
2018-11-02T10:57:22.764Z,65.44
2018-11-02T10:59:49.671Z,62.71
2018-11-02T11:02:22.347Z,61.12
2018-11-02T11:04:49.299Z,61.39
2018-11-02T11:07:16.291Z,61.60
2018-11-02T11:09:43.187Z,61.96
2018-11-02T11:12:10.234Z,60.70
2018-11-02T11:14:37.087Z,60.72
2018-11-02T11:17:04.155Z,61.12
2018-11-02T11:19:31.189Z,60.04
2018-11-02T11:21:58.138Z,59.84
2018-11-02T11:24:25.197Z,60.91
2018-11-02T11:26:52.119Z,60.95
2018-11-02T11:29:21.040Z,61.71
2018-11-02T11:31:47.965Z,59.70
2018-11-02T11:34:14.927Z,60.31
2018-11-02T11:36:41.895Z,59.44
2018-11-02T11:39:10.520Z,57.97
2018-11-02T11:41:37.467Z,60.61
2018-11-02T11:44:04.408Z,59.26
2018-11-02T11:46:31.367Z,60.35
2018-11-02T11:48:58.552Z,59.09
2018-11-02T11:51:25.503Z,59.78
2018-11-02T11:53:52.563Z,58.90
2018-11-02T11:56:19.447Z,58.39
2018-11-02T11:58:46.381Z,57.99
2018-11-02T12:01:13.339Z,58.14
2018-11-02T12:03:40.295Z,58.42
2018-11-02T12:06:08.251Z,56.50
2018-11-02T12:08:35.186Z,57.16
2018-11-02T12:11:03.055Z,57.20
2018-11-02T12:13:30.019Z,57.41
2018-11-02T12:15:57.036Z,58.41
2018-11-02T12:18:23.902Z,58.46
2018-11-02T12:20:50.843Z,57.27
2018-11-02T12:23:17.888Z,58.86
2018-11-02T12:25:44.755Z,58.86
2018-11-02T12:28:11.720Z,60.80
2018-11-02T12:30:38.634Z,59.43
2018-11-02T12:33:05.550Z,60.57
2018-11-02T12:35:32.509Z,60.71
2018-11-02T12:37:59.451Z,58.94
2018-11-02T12:40:26.442Z,60.62
2018-11-02T12:42:54.320Z,59.90
2018-11-02T12:45:21.718Z,60.50
2018-11-02T12:47:49.118Z,60.33
2018-11-02T12:50:19.367Z,59.36
2018-11-02T12:52:47.258Z,59.92
2018-11-02T12:55:14.858Z,59.77
2018-11-02T12:57:42.770Z,58.83
2018-11-02T13:00:21.110Z,58.14
2018-11-02T13:02:48.653Z,57.20
2018-11-02T13:05:15.598Z,56.13
2018-11-02T13:07:42.579Z,56.54
2018-11-02T13:10:10.527Z,57.00
2018-11-02T13:12:37.488Z,57.79
2018-11-02T13:15:05.795Z,58.00
2018-11-02T13:17:32.754Z,59.09
2018-11-02T13:19:59.618Z,59.27
2018-11-02T13:22:26.563Z,57.84
2018-11-02T13:24:53.554Z,58.78
2018-11-02T13:27:20.455Z,58.39
2018-11-02T13:29:47.406Z,56.78
2018-11-02T13:32:14.345Z,57.27
2018-11-02T13:34:41.287Z,59.11
2018-11-02T13:37:08.368Z,58.71
2018-11-02T13:39:35.182Z,58.68
2018-11-02T13:42:02.123Z,58.29
2018-11-02T13:44:29.062Z,58.47
2018-11-02T13:46:55.910Z,58.37
2018-11-02T13:49:22.852Z,59.04
2018-11-02T13:51:49.794Z,59.03
2018-11-02T13:54:16.767Z,59.15
2018-11-02T13:56:43.707Z,57.35
2018-11-02T13:59:10.662Z,58.00
2018-11-02T14:01:37.614Z,59.46
2018-11-02T14:04:04.675Z,57.81
2018-11-02T14:06:31.571Z,58.85
2018-11-02T14:08:58.529Z,59.42
2018-11-02T14:11:25.502Z,59.41
2018-11-02T14:13:52.406Z,59.11
2018-11-02T14:16:19.375Z,60.25
2018-11-02T14:18:46.287Z,59.70
2018-11-02T14:21:13.234Z,60.36
2018-11-02T14:23:40.191Z,60.26
2018-11-02T14:26:07.326Z,61.64
2018-11-02T14:28:34.274Z,60.75
2018-11-02T14:31:01.227Z,61.42
2018-11-02T14:33:28.176Z,61.46
2018-11-02T14:35:55.108Z,60.02
2018-11-02T14:38:22.050Z,60.81
2018-11-02T14:40:48.909Z,60.36
2018-11-02T14:43:15.839Z,60.90
2018-11-02T14:45:42.693Z,61.86
2018-11-02T14:48:10.555Z,61.22
2018-11-02T14:50:38.407Z,61.93
2018-11-02T14:53:05.251Z,60.38
2018-11-02T14:55:32.203Z,59.82
2018-11-02T14:57:59.142Z,60.48
2018-11-02T15:00:27.034Z,61.45
2018-11-02T15:02:53.966Z,60.80
2018-11-02T15:05:20.914Z,61.75
2018-11-02T15:07:47.862Z,60.89
2018-11-02T15:10:16.739Z,61.68
2018-11-02T15:12:44.622Z,61.63
2018-11-02T15:15:11.559Z,60.91
2018-11-02T15:17:38.803Z,61.08
2018-11-02T15:20:08.040Z,61.75
2018-11-02T15:22:34.958Z,62.63
2018-11-02T15:25:01.892Z,61.18
2018-11-02T15:27:28.825Z,61.79
2018-11-02T15:29:55.690Z,61.53
2018-11-02T15:32:22.622Z,62.06
2018-11-02T15:34:49.568Z,62.96
2018-11-02T15:37:16.564Z,62.37
2018-11-02T15:39:43.541Z,63.17
2018-11-02T15:42:10.422Z,62.66
2018-11-02T15:44:37.457Z,64.92
2018-11-02T15:47:04.590Z,67.50
2018-11-02T15:51:57.866Z,67.10
2018-11-02T15:54:24.710Z,67.42
2018-11-02T15:56:51.700Z,68.47
2018-11-02T15:59:18.762Z,70.47
2018-11-02T16:01:45.650Z,71.53
2018-11-02T16:04:12.908Z,71.05
2018-11-02T16:06:39.884Z,70.96
2018-11-02T16:09:12.111Z,68.19
2018-11-02T16:11:38.974Z,69.69
2018-11-02T16:14:06.032Z,72.26
2018-11-02T16:16:33.115Z,75.68
2018-11-02T16:19:00.040Z,76.28
2018-11-02T16:21:26.955Z,74.21
2018-11-02T16:23:53.942Z,76.07
2018-11-02T16:26:20.919Z,76.53
2018-11-02T16:28:48.716Z,77.29
2018-11-02T16:31:15.650Z,76.40
2018-11-02T16:33:42.515Z,76.67
2018-11-02T16:36:09.542Z,75.00
2018-11-02T16:38:36.491Z,73.18
2018-11-02T16:41:03.454Z,72.89
2018-11-02T16:43:30.463Z,73.84
2018-11-02T16:45:57.390Z,73.92
2018-11-02T16:48:24.278Z,73.91
2018-11-02T16:50:51.214Z,74.59
2018-11-02T16:53:18.178Z,75.62
2018-11-02T16:55:45.128Z,76.86
2018-11-02T16:58:12.039Z,76.80
2018-11-02T17:00:38.982Z,77.77
2018-11-02T17:03:05.935Z,78.17
2018-11-02T17:05:32.883Z,79.90
2018-11-02T17:08:00.826Z,80.46
2018-11-02T17:10:27.692Z,80.51
2018-11-02T17:12:54.639Z,80.68
2018-11-02T17:15:21.682Z,80.33
2018-11-02T17:17:48.630Z,80.86
2018-11-02T17:20:17.360Z,82.97
2018-11-02T17:22:44.451Z,82.45
2018-11-02T17:25:11.924Z,82.76
2018-11-02T17:27:39.107Z,81.77
2018-11-02T17:30:07.667Z,80.01
2018-11-02T17:32:34.626Z,79.92
2018-11-02T17:35:01.546Z,80.38
2018-11-02T17:37:28.523Z,81.05
2018-11-02T17:39:55.418Z,80.75
2018-11-02T17:42:22.433Z,81.74
2018-11-02T17:44:49.331Z,82.09
2018-11-02T17:47:16.250Z,81.74
2018-11-02T17:49:43.158Z,82.47
2018-11-02T17:52:10.043Z,83.59
2018-11-02T17:54:36.999Z,83.13
2018-11-02T17:57:04.273Z,84.57
2018-11-02T17:59:31.565Z,84.93
2018-11-02T18:01:58.443Z,83.26
2018-11-02T18:04:25.429Z,82.65
2018-11-02T18:06:52.420Z,82.80
2018-11-02T18:09:19.274Z,82.84
2018-11-02T18:11:46.128Z,83.79
2018-11-02T18:14:13.061Z,83.70
2018-11-02T18:16:39.922Z,82.73
2018-11-02T18:19:06.844Z,83.92
2018-11-02T18:21:33.694Z,84.16
2018-11-02T18:24:00.634Z,83.75
2018-11-02T18:26:27.595Z,83.03
2018-11-02T18:28:54.663Z,82.38
2018-11-02T18:31:21.567Z,82.30
2018-11-02T18:33:48.430Z,82.54
2018-11-02T18:36:15.359Z,82.37
2018-11-02T18:38:42.303Z,80.89
2018-11-02T18:41:09.162Z,80.55
2018-11-02T18:43:36.099Z,80.27
2018-11-02T18:46:03.064Z,80.91
2018-11-02T18:48:30.048Z,81.87
2018-11-02T18:50:56.926Z,81.70
2018-11-02T18:53:23.907Z,82.20
2018-11-02T18:55:50.815Z,83.29
2018-11-02T18:58:17.759Z,83.14
2018-11-02T19:00:44.719Z,81.72
2018-11-02T19:03:11.648Z,82.06
2018-11-02T19:05:38.655Z,82.26
2018-11-02T19:08:05.534Z,81.80
2018-11-02T19:10:32.487Z,81.29
2018-11-02T19:12:59.422Z,81.30
2018-11-02T19:15:26.291Z,80.72
2018-11-02T19:17:54.151Z,80.92
2018-11-02T19:20:21.146Z,81.19
2018-11-02T19:22:48.025Z,80.64
2018-11-02T19:25:15.635Z,80.38
2018-11-02T19:27:43.125Z,81.42
2018-11-02T19:30:10.806Z,80.45
2018-11-02T19:32:37.799Z,81.15
2018-11-02T19:35:05.117Z,80.67
2018-11-02T19:37:31.955Z,81.16
2018-11-02T19:39:58.921Z,80.91
2018-11-02T19:42:25.874Z,80.87
2018-11-02T19:44:52.827Z,81.46
2018-11-02T19:47:19.734Z,80.71
2018-11-02T19:49:46.670Z,80.47
2018-11-02T19:52:14.539Z,80.25
2018-11-02T19:54:41.484Z,80.07
2018-11-02T19:57:08.430Z,79.58
2018-11-02T19:59:35.445Z,79.82
2018-11-02T20:02:02.333Z,79.67
2018-11-02T20:04:30.182Z,79.09
2018-11-02T20:06:57.147Z,78.73
2018-11-02T20:09:24.120Z,78.86
2018-11-02T20:11:51.038Z,78.37
2018-11-02T20:14:17.988Z,78.71
2018-11-02T20:16:44.919Z,78.08
2018-11-02T20:19:11.898Z,78.16
2018-11-02T20:21:38.707Z,77.77
2018-11-02T20:24:05.637Z,78.13
2018-11-02T20:26:32.539Z,77.89
2018-11-02T20:28:59.371Z,77.08
2018-11-02T20:31:26.286Z,77.89
2018-11-02T20:33:53.231Z,76.92
2018-11-02T20:36:20.167Z,78.05
2018-11-02T20:38:47.187Z,77.29
2018-11-02T20:41:14.042Z,77.38
2018-11-02T20:43:40.998Z,77.20
2018-11-02T20:46:07.937Z,77.72
2018-11-02T20:48:34.780Z,76.41
2018-11-02T20:51:01.720Z,76.02
2018-11-02T20:53:28.695Z,77.45
2018-11-02T20:55:55.606Z,76.53
2018-11-02T20:58:22.479Z,76.51
2018-11-02T21:00:49.398Z,76.68
2018-11-02T21:03:16.379Z,77.04
2018-11-02T21:05:43.379Z,77.89
2018-11-02T21:08:10.383Z,77.41
2018-11-02T21:10:37.186Z,77.48
2018-11-02T21:13:04.404Z,76.57
2018-11-02T21:15:31.283Z,76.36
2018-11-02T21:17:58.211Z,76.75
2018-11-02T21:20:25.831Z,75.97
2018-11-02T21:22:53.754Z,75.72
2018-11-02T21:25:20.686Z,76.37
2018-11-02T21:27:47.941Z,75.86
2018-11-02T21:30:16.423Z,76.80
2018-11-02T21:32:44.191Z,75.78
2018-11-02T21:35:11.138Z,76.75
2018-11-02T21:37:38.294Z,76.82
2018-11-02T21:40:07.078Z,76.99
2018-11-02T21:42:34.050Z,76.63
2018-11-02T21:45:00.959Z,76.77
2018-11-02T21:47:27.914Z,77.29
2018-11-02T21:49:55.770Z,77.23
2018-11-02T21:52:22.621Z,77.22
2018-11-02T21:54:49.566Z,77.56
2018-11-02T21:57:16.506Z,78.98
2018-11-02T21:59:44.483Z,78.13
2018-11-02T22:02:11.315Z,78.41
2018-11-02T22:04:38.467Z,78.23
2018-11-02T22:07:05.411Z,78.13
2018-11-02T22:09:32.354Z,78.37
2018-11-02T22:11:59.299Z,78.29
2018-11-02T22:14:26.243Z,78.33
2018-11-02T22:16:53.207Z,78.01
2018-11-02T22:19:20.199Z,78.46
2018-11-02T22:21:47.074Z,78.28
2018-11-02T22:24:13.934Z,77.74
2018-11-02T22:26:40.863Z,78.30
2018-11-02T22:29:08.058Z,78.46
2018-11-02T22:34:12.607Z,78.14
2018-11-02T22:36:39.524Z,77.36
2018-11-02T22:39:07.375Z,77.60
2018-11-02T22:41:34.339Z,77.46
2018-11-02T22:44:01.252Z,78.06
2018-11-02T22:46:28.207Z,77.30
2018-11-02T22:48:55.160Z,78.46
2018-11-02T22:51:22.018Z,78.09
2018-11-02T22:53:48.866Z,77.91
2018-11-02T22:56:15.774Z,78.61
2018-11-02T22:58:42.715Z,78.95
2018-11-02T23:01:15.398Z,78.47
2018-11-02T23:03:42.351Z,78.03
2018-11-02T23:06:09.306Z,77.21
2018-11-02T23:08:36.291Z,77.53
2018-11-02T23:11:03.223Z,78.47
2018-11-02T23:13:30.135Z,77.37
2018-11-02T23:15:56.996Z,77.14
2018-11-02T23:18:23.911Z,77.28
2018-11-02T23:20:50.859Z,78.26
2018-11-02T23:23:17.802Z,78.40
2018-11-02T23:25:44.739Z,77.04
2018-11-02T23:28:11.703Z,78.36
2018-11-02T23:30:38.634Z,77.53
2018-11-02T23:33:05.578Z,77.01
2018-11-02T23:35:32.530Z,77.67
2018-11-02T23:38:00.391Z,78.28
2018-11-02T23:40:27.340Z,78.34
2018-11-02T23:42:54.287Z,78.75
2018-11-02T23:45:21.229Z,78.47
2018-11-02T23:47:53.802Z,78.66
2018-11-02T23:50:20.754Z,78.98
2018-11-02T23:52:47.694Z,79.52
2018-11-02T23:55:14.643Z,78.60
2018-11-02T23:57:41.585Z,78.83
